Flight Track Log - Related Links

Times and Time Zones

All times are in EST time to prevent confusion due to time zone crossing. See the N789EX flight status page for this flight to view local times or setup timezone preferences in your user account.

Time Position Orientation Groundspeed Altitude Reporting Facility
EST Latitude Longitude Course Direction KTS MPH feet Rate Location/Type
Sun 01:30:44 PM 47.5466 -122.3160 330° Northwest 181 208 700  Level FlightAware ADS-B
Sun 01:30:54 PM 47.5538 -122.3230 327° Northwest 192 221 1,100 2,160 Climbing FlightAware ADS-B
Sun 01:31:09 PM 47.5655 -122.3340 328° Northwest 211 243 1,600 1,929 Climbing FlightAware ADS-B
Sun 01:31:22 PM 47.5772 -122.3460 325° Northwest 232 267 2,000 2,143 Climbing FlightAware ADS-B
Sun 01:31:37 PM 47.5906 -122.3600 325° Northwest 250 288 2,600 2,211 Climbing FlightAware ADS-B
Sun 01:31:41 PM 47.5939 -122.3640 321° Northwest 253 291 2,700 2,250 Climbing FlightAware ADS-B
Sun 01:31:45 PM 47.5974 -122.3680 322° Northwest 257 296 2,900 3,429 Climbing FlightAware ADS-B
Sun 01:31:48 PM 47.6001 -122.3730 309° West 261 300 3,100 3,429 Climbing FlightAware ADS-B
Sun 01:31:52 PM 47.6028 -122.3780 309° West 264 304 3,300 2,571 Climbing FlightAware ADS-B
Sun 01:31:55 PM 47.6048 -122.3830 301° West 265 305 3,400 3,333 Climbing FlightAware ADS-B
Sun 01:32:10 PM 47.6138 -122.4080 298° West 268 308 4,300 3,800 Climbing FlightAware ADS-B
Sun 01:32:25 PM 47.6226 -122.4330 298° West 270 311 5,300 3,900 Climbing FlightAware ADS-B
Sun 01:32:30 PM 47.6257 -122.4410 300° West 271 312 5,600 3,600 Climbing FlightAware ADS-B
Sun 01:32:35 PM 47.6294 -122.4480 308° West 273 314 5,900 3,600 Climbing FlightAware ADS-B
Sun 01:32:40 PM 47.6333 -122.4550 310° West 274 315 6,200 3,000 Climbing FlightAware ADS-B
Sun 01:32:43 PM 47.6367 -122.4590 322° Northwest 275 316 6,300 3,000 Climbing FlightAware ADS-B
Sun 01:32:48 PM 47.6414 -122.4630 330° Northwest 275 316 6,600 3,333 Climbing FlightAware ADS-B
Sun 01:32:52 PM 47.6458 -122.4660 335° Northwest 275 316 6,800 4,000 Climbing FlightAware ADS-B
Sun 01:32:57 PM 47.6518 -122.4690 341° North 271 312 7,200 4,667 Climbing FlightAware ADS-B
Sun 01:33:01 PM 47.6572 -122.4700 353° North 269 310 7,500 5,000 Climbing FlightAware ADS-B
Sun 01:33:09 PM 47.6666 -122.4720 352° North 261 300 8,200 4,333 Climbing FlightAware ADS-B
Sun 01:33:19 PM 47.6788 -122.4740 354° North 262 302 8,800 3,000 Climbing FlightAware ADS-B
Sun 01:33:25 PM 47.6859 -122.4740 360° North 266 306 9,000 1,800 Climbing FlightAware ADS-B
Sun 01:33:29 PM 47.6909 -122.4730 North 270 311 9,100 2,727 Climbing FlightAware ADS-B
Sun 01:33:36 PM 47.7003 -122.4690 16° North 273 314 9,500 3,273 Climbing FlightAware ADS-B
Sun 01:33:40 PM 47.7038 -122.4660 30° Northeast 272 313 9,700 4,286 Climbing FlightAware ADS-B
Sun 01:33:43 PM 47.7070 -122.4630 32° Northeast 268 308 10,000 5,000 Climbing FlightAware ADS-B
Sun 01:33:46 PM 47.7098 -122.4590 44° Northeast 268 308 10,200 4,286 Climbing FlightAware ADS-B
Sun 01:33:50 PM 47.7136 -122.4530 47° Northeast 273 314 10,500 3,000 Climbing FlightAware ADS-B
Sun 01:33:54 PM 47.7162 -122.4480 52° Northeast 279 321 10,600 1,636 Climbing FlightAware ADS-B
Sun 01:34:01 PM 47.7202 -122.4360 64° Northeast 288 331 10,800 2,400 Climbing FlightAware ADS-B
Sun 01:34:04 PM 47.7215 -122.4290 75° East 293 337 11,000 2,250 Climbing FlightAware ADS-B
Sun 01:34:09 PM 47.7225 -122.4200 81° East 301 346 11,100 1,800 Climbing FlightAware ADS-B
Sun 01:34:14 PM 47.7229 -122.4080 87° East 308 354 11,300 2,571 Climbing FlightAware ADS-B
Sun 01:34:16 PM 47.7229 -122.4111 269° West 310 357 11,400 2,333 Climbing FlightAware ADS-B
Sun 01:34:32 PM 47.7217 -122.3700 92° East 322 371 12,000 2,609 Climbing FlightAware ADS-B
Sun 01:34:39 PM 47.7205 -122.3540 96° East 324 373 12,400 3,273 Climbing FlightAware ADS-B
Sun 01:34:43 PM 47.7194 -122.3460 102° East 328 377 12,600 2,571 Climbing FlightAware ADS-B
Sun 01:34:53 PM 47.7155 -122.3230 104° East 336 387 13,000 2,100 Climbing FlightAware ADS-B
Sun 01:35:03 PM 47.7106 -122.3010 108° East 341 392 13,300 2,000 Climbing FlightAware ADS-B
Sun 01:35:14 PM 47.7041 -122.2780 113° Southeast 333 383 13,700 2,118 Climbing FlightAware ADS-B
Sun 01:35:20 PM 47.7000 -122.2660 117° Southeast 330 380 13,900 1,636 Climbing FlightAware ADS-B
Sun 01:35:36 PM 47.6864 -122.2370 125° Southeast 328 377 14,300 1,371 Climbing FlightAware ADS-B
Sun 01:35:55 PM 47.6678 -122.2040 130° Southeast 340 391 14,700 1,174 Climbing FlightAware ADS-B
Sun 01:36:22 PM 47.6390 -122.1510 129° Southeast 367 422 15,200 1,174 Climbing FlightAware ADS-B
Sun 01:36:41 PM 47.6200 -122.1140 127° Southeast 385 443 15,600 1,469 Climbing FlightAware ADS-B
Sun 01:37:11 PM 47.5888 -122.0490 125° Southeast 373 429 16,400 1,543 Climbing FlightAware ADS-B
Sun 01:37:16 PM 47.5840 -122.0392 126° Southeast 371 427 16,500 200 Climbing FlightAware ADS-B
Sun 01:37:41 PM 47.5600 -121.9900 126° Southeast 339 390 16,500 -109 Level FlightAware ADS-B
Sun 01:38:11 PM 47.5330 -121.9350 126° Southeast 321 369 16,400 -154 Descending FlightAware ADS-B
Sun 01:38:20 PM 47.5268 -121.9217 125° Southeast 320 368 16,400 214 Level FlightAware ADS-B
Sun 01:38:39 PM 47.5096 -121.8860 125° Southeast 318 366 16,500 122 Climbing FlightAware ADS-B
Sun 01:39:09 PM 47.4836 -121.8320 125° Southeast 318 366 16,500  Level FlightAware ADS-B
Sun 01:39:39 PM 47.4575 -121.7790 126° Southeast 322 371 16,500  Level FlightAware ADS-B
Sun 01:39:58 PM 47.4415 -121.7450 125° Southeast 325 374 16,500  Level FlightAware ADS-B
Sun 01:40:03 PM 47.4375 -121.7350 121° Southeast 323 372 16,500  Level FlightAware ADS-B
Sun 01:40:09 PM 47.4340 -121.7230 113° Southeast 320 368 16,500  Level FlightAware ADS-B
Sun 01:40:14 PM 47.4318 -121.7130 108° East 318 366 16,500  Level FlightAware ADS-B
Sun 01:40:19 PM 47.4301 -121.7020 103° East 318 366 16,500  Level FlightAware ADS-B
Sun 01:40:25 PM 47.4291 -121.6890 96° East 317 365 16,500  Level FlightAware ADS-B
Sun 01:40:56 PM 47.4283 -121.6220 91° East 321 369 16,500  Level FlightAware ADS-B
Sun 01:41:14 PM 47.4277 -121.5830 91° East 321 369 16,500  Level FlightAware ADS-B
Sun 01:41:20 PM 47.4283 -121.5700 86° East 317 365 16,500  Level FlightAware ADS-B
Sun 01:41:24 PM 47.4298 -121.5610 76° East 311 358 16,500 -667 Level FlightAware ADS-B
Sun 01:41:29 PM 47.4326 -121.5520 65° Northeast 308 354 16,400 -545 Descending FlightAware ADS-B
Sun 01:41:35 PM 47.4372 -121.5410 58° Northeast 302 348 16,400  Level FlightAware ADS-B
Sun 01:41:57 PM 47.4461 -121.4980 73° East 324 373 16,400  Level FlightAware ADS-B
Sun 01:42:25 PM 47.4373 -121.4380 102° East 329 379 16,400 133 Level FlightAware ADS-B
Sun 01:42:42 PM 47.4310 -121.4000 104° East 329 379 16,500 188 Climbing FlightAware ADS-B
Sun 01:42:57 PM 47.4271 -121.3670 100° East 328 377 16,500  Level FlightAware ADS-B
Sun 01:43:22 PM 47.4239 -121.3130 95° East 321 369 16,500  Level FlightAware ADS-B
Sun 01:43:52 PM 47.4221 -121.2440 92° East 356 410 16,500  Level FlightAware ADS-B
Sun 01:44:22 PM 47.4207 -121.1670 92° East 386 444 16,500  Level FlightAware ADS-B
Sun 01:44:52 PM 47.4193 -121.0870 91° East 408 470 16,500  Level FlightAware ADS-B
Sun 01:45:22 PM 47.4177 -121.0000 92° East 433 498 16,500  Level FlightAware ADS-B
Sun 01:45:52 PM 47.4159 -120.9100 92° East 433 498 16,500  Level FlightAware ADS-B
Sun 01:46:22 PM 47.4140 -120.8220 92° East 431 496 16,500 -98 Level FlightAware ADS-B
Sun 01:46:53 PM 47.4121 -120.7320 92° East 432 497 16,400 -81 Descending FlightAware ADS-B
Sun 01:47:36 PM 47.4093 -120.6030 92° East 436 502 16,400  Level FlightAware ADS-B
Sun 01:48:14 PM 47.4067 -120.4920 92° East 409 471 16,400 -63 Level FlightAware ADS-B
Sun 01:50:47 PM 47.3973 -120.1110 92° East 359 413 16,200 -265 Descending FlightAware ADS-B
Sun 01:51:38 PM 47.3931 -119.9964 92° East 339 390 15,500 -1,768 Descending Seattle Center
Sun 01:52:39 PM 47.3919 -119.8783 91° East 293 337 12,900 -2,459 Descending Seattle Center
Sun 01:53:40 PM 47.4472 -119.8153 38° Northeast 249 287 10,500 -1,918 Descending Seattle Center
Sun 01:54:41 PM 47.5022 -119.7678 30° Northeast 230 265 9,000 -738 Descending Seattle Center
Sun 01:55:42 PM 47.5617 -119.7244 26° Northeast 236 272 9,000  Level Seattle Center
Sun 01:56:43 PM 47.6197 -119.6828 26° Northeast 233 268 9,000  Level Seattle Center
Sun 01:57:44 PM 47.6786 -119.6414 25° Northeast 234 269 9,000  Level Seattle Center
Sun 01:58:45 PM 47.7414 -119.5942 27° Northeast 235 270 9,000  Level Seattle Center
Sun 01:59:45 PM 47.8033 -119.5500 26° Northeast 245 282 9,000  Level Seattle Center
Sun 02:00:46 PM 47.8642 -119.5053 26° Northeast 244 281 9,000  Level Seattle Center
Sun 02:01:47 PM 47.8969 -119.4286 57° Northeast 259 298 9,000 492 Level Seattle Center
Sun 02:02:48 PM 47.8686 -119.3083 109° East 301 346 10,000 492 Climbing Seattle Center
Sun 02:03:49 PM 47.8375 -119.1753 109° East 312 359 10,000  Level Seattle Center
Sun 02:04:50 PM 47.8103 -119.0561 109° East 307 353 10,000  Level Seattle Center
Sun 02:05:51 PM 47.7811 -118.9350 110° East 310 357 10,000  Level Seattle Center
Sun 02:06:52 PM 47.6989 -118.8806 156° South 358 412 10,000 443 Level Seattle Center
Sun 02:07:53 PM 47.6319 -118.9811 225° Southwest 356 410 10,900 443 Climbing Seattle Center
Sun 02:08:54 PM 47.6406 -119.0886 277° West 349 402 10,900 246 Level Seattle Center
Sun 02:09:55 PM 47.7231 -119.0828 North 325 374 11,400 197 Climbing Seattle Center
Sun 02:10:56 PM 47.7808 -119.1394 327° Northwest 313 360 11,300 49 Descending Seattle Center
Sun 02:11:57 PM 47.7419 -119.2708 246° West 353 406 11,500 98 Climbing Seattle Center
Sun 02:12:58 PM 47.7925 -119.3781 305° West 298 343 11,500 -49 Level Seattle Center
Sun 02:13:59 PM 47.8619 -119.3828 357° North 326 375 11,400  Descending Seattle Center
Sun 02:15:00 PM 47.8492 -119.2158 96° East 412 474 11,500 98 Climbing Seattle Center
Sun 02:16:01 PM 47.8183 -119.0458 105° East 422 486 11,600  Climbing Seattle Center
Sun 02:17:02 PM 47.7692 -118.9167 119° Southeast 377 434 11,500 -49 Descending Seattle Center
Sun 02:18:03 PM 47.6631 -118.9486 191° South 391 450 11,500 49 Level Seattle Center
Sun 02:19:04 PM 47.6542 -119.0850 265° West 347 399 11,600  Climbing Seattle Center
Sun 02:20:05 PM 47.6650 -119.2225 277° West 340 391 11,500  Descending Seattle Center
Sun 02:21:06 PM 47.6894 -119.3433 287° West 318 366 11,600  Climbing Seattle Center
Sun 02:22:07 PM 47.7519 -119.4250 319° Northwest 292 336 11,500 -98 Descending Seattle Center
Sun 02:23:08 PM 47.8314 -119.4392 353° North 291 335 11,400 49 Descending Seattle Center
Sun 02:24:09 PM 47.8686 -119.5483 297° West 307 353 11,600 98 Climbing Seattle Center
Sun 02:25:10 PM 47.8014 -119.6389 222° Southwest 362 417 11,600  Level Seattle Center
Sun 02:26:11 PM 47.7269 -119.5469 140° Southeast 348 400 11,600 49 Level Seattle Center
Sun 02:27:12 PM 47.7206 -119.4142 94° East 322 371 11,700 49 Climbing Seattle Center
Sun 02:28:13 PM 47.6928 -119.2844 108° East 330 380 11,700 -49 Level Seattle Center
Sun 02:29:14 PM 47.6817 -119.1661 98° East 305 351 11,600 49 Descending Seattle Center
Sun 02:30:15 PM 47.7378 -119.1533 North 233 268 11,800 148 Climbing Seattle Center
Sun 02:31:16 PM 47.7864 -119.1994 327° Northwest 193 222 11,900 -246 Climbing Seattle Center
Sun 02:32:17 PM 47.8183 -119.2336 324° Northwest 149 171 11,300 -590 Descending Seattle Center
Sun 02:33:18 PM 47.8547 -119.2747 323° Northwest 169 194 10,700 98 Descending Seattle Center
Sun 02:34:19 PM 47.8686 -119.3550 284° West 202 232 11,500 443 Climbing Seattle Center
Sun 02:35:20 PM 47.8764 -119.4419 278° West 199 229 11,600 49 Climbing Seattle Center
Sun 02:36:21 PM 47.8842 -119.5186 279° West 192 221 11,600  Level Seattle Center
Sun 02:37:22 PM 47.8908 -119.5947 277° West 189 217 11,600  Level Seattle Center
Sun 02:38:23 PM 47.8406 -119.6167 196° South 231 266 11,600  Level Seattle Center
Sun 02:39:24 PM 47.8047 -119.5450 127° Southeast 214 246 11,600 -49 Level Seattle Center
Sun 02:40:25 PM 47.7675 -119.4619 124° Southeast 221 254 11,500 -50 Descending Seattle Center
Sun 02:41:25 PM 47.7414 -119.3867 117° Southeast 206 237 11,500 50 Level Seattle Center
Sun 02:42:26 PM 47.7067 -119.3111 124° Southeast 231 266 11,600 49 Climbing Seattle Center
Sun 02:43:27 PM 47.6658 -119.2167 123° Southeast 271 312 11,600  Level Seattle Center
Sun 02:44:28 PM 47.6258 -119.1244 123° Southeast 265 305 11,600  Level Seattle Center
Sun 02:45:29 PM 47.5847 -119.0247 121° Southeast 265 305 11,600  Level Seattle Center
Sun 02:46:30 PM 47.6272 -118.9853 32° Northeast 222 255 11,600  Level Seattle Center
Sun 02:47:31 PM 47.6767 -119.0500 319° Northwest 236 272 11,600  Level Seattle Center
Sun 02:48:33 PM 47.7264 -119.1133 319° Northwest 237 273 11,600  Level Seattle Center
Sun 02:49:34 PM 47.7742 -119.1908 313° West 244 281 11,600 -295 Level Seattle Center
Sun 02:50:35 PM 47.7394 -119.2867 242° Southwest 288 331 11,000 -738 Descending Seattle Center
Sun 02:51:36 PM 47.6558 -119.2956 184° South 303 349 10,100 -885 Descending Seattle Center

Login

Don't have an account? Register now (free) for customized features, flight alerts, and more!